TAF Text Data
IDs:
Format:
Raw Decoded Include METAR

Data at: 1607 UTC 20 May 2022

VTBD 201600Z 21006KT 9999 FEW020 28/23 Q1007 NOSIG

TAF VTBD 201100Z 2012/2118 18008KT 9999 FEW020
  TEMPO 2106/2112 21010G25KT 4000 TSRA FEW018CB SCT030 BKN100